• Join FlightAware (Why Join?)
  • Login
  • US Flag 
11:20AM EST


 

Airport Tracker/Info


-or-


 

Live Flight TrackerFlight Track Log ✈ N229CN ✈ 14-Jul-2013 ✈ KBTV - KEYW

Flight Track Log - Related Links

Times and Time Zones

All times are in EDT time to prevent confusion due to time zone crossing. See the N229CN flight status page for this flight to view local times or setup timezone preferences in your user account.

Time Position Orientation Groundspeed Altitude Reporting Facility
EDT Latitude Longitude Course Direction KTS MPH feet Rate Location/Type
10:04AM 44.3697 -73.1342 196° South 206 237 6,000  Level Boston Center
10:05AM 44.3111 -73.1539 194° South 211 243 9,000 2,520 Climbing Boston Center
10:06AM 44.2444 -73.1819 197° South 238 274 11,100 2,100 Climbing Boston Center
10:07AM 44.1753 -73.2128 198° South 263 303 13,300 2,100 Climbing Boston Center
10:08AM 44.1003 -73.2439 197° South 274 315 15,400 2,040 Climbing Boston Center
10:09AM 43.8568 -73.3740 196° South  Level FlightAware Approximate
10:09AM 44.0250 -73.2744 196° South 285 328 17,400  Level Boston Center
10:10AM 43.7556 -73.4146 196° South  Level FlightAware Approximate
10:10AM 43.9456 -73.3108 198° South 290 334 18,600  Level Boston Center
10:11AM 43.8619 -73.3442 196° South 296 341 20,200 1,560 Climbing Boston Center
10:12AM 43.7803 -73.3803 198° South 307 353 21,800 1,500 Climbing Boston Center
10:13AM 43.6903 -73.4164 196° South 319 367 23,300 1,620 Climbing Boston Center
10:14AM 43.6047 -73.4522 197° South 325 374 25,100 1,500 Climbing Boston Center
10:15AM 43.5147 -73.4850 195° South 325 374 26,400 1,260 Climbing Boston Center
10:16AM 43.4247 -73.5236 197° South 330 380 27,700 1,200 Climbing Boston Center
10:17AM 43.3286 -73.5647 197° South 346 398 28,900 1,020 Climbing Boston Center
10:18AM 43.2322 -73.6056 197° South 357 411 29,800 900 Climbing Boston Center
10:19AM 43.1528 -73.6353 195° South 367 422 30,800 1,080 Climbing Boston Center
10:20AM 43.0417 -73.6814 197° South 374 430 32,000 1,200 Climbing Boston Center
10:21AM 42.9414 -73.7250 198° South 379 436 33,300 1,320 Climbing Boston Center
10:22AM 42.8428 -73.7653 197° South 379 436 34,700 1,260 Climbing Boston Center
10:23AM 42.7444 -73.8056 197° South 379 436 35,900 1,260 Climbing Boston Center
10:24AM 42.6481 -73.8431 196° South 379 436 37,300 1,260 Climbing Boston Center
10:25AM 42.5558 -73.8889 200° South 373 429 38,500 1,080 Climbing Boston Center
10:26AM 42.4572 -73.9258 195° South 368 423 39,500 1,080 Climbing Boston Center
10:27AM 42.3631 -73.9631 196° South 363 418 40,700 900 Climbing Boston Center
10:28AM 42.2689 -74.0000 196° South 363 418 41,300 600 Climbing Boston Center
10:29AM 42.1725 -74.0369 196° South 363 418 42,000 780 Climbing Boston Center
10:30AM 42.0656 -74.0789 196° South 368 423 42,900 300 Climbing Boston Center
10:32AM 41.8586 -74.1575 196° South 378 435 43,000  Climbing New York Center
10:33AM 41.7533 -74.1967 196° South 390 449 43,000  Level New York Center
10:34AM 41.6417 -74.2408 196° South 404 465 43,000  Level New York Center
10:35AM 41.5383 -74.2797 196° South 404 465 43,000  Level New York Center
10:36AM 41.4225 -74.3236 196° South 412 474 43,000  Level New York Center
10:37AM 41.3067 -74.3697 197° South 424 488 43,000  Level New York Center
10:38AM 41.1931 -74.4106 195° South 431 496 43,000  Level New York Center
10:39AM 41.0814 -74.4514 195° South 426 490 43,000  Level New York Center
10:40AM 40.9717 -74.4922 196° South 421 484 43,000  Level New York Center
10:41AM 40.8597 -74.5381 197° South 426 490 43,000  Level New York Center
10:42AM 40.7483 -74.5758 194° South 426 490 43,000  Level New York Center
10:43AM 40.6344 -74.6186 196° South 426 490 43,000  Level New York Center
10:44AM 40.5225 -74.6614 196° South 426 490 43,000  Level New York Center
10:47AM 40.2189 -74.7736 196° South 426 490 43,000  Level Washington Center
10:48AM 40.0922 -74.8239 197° South 426 490 43,000  Level Washington Center
10:49AM 39.9800 -74.8631 195° South 426 490 43,000  Level Washington Center
10:50AM 39.8658 -74.9050 196° South 426 490 43,000  Level Washington Center
10:51AM 39.7514 -74.9464 196° South 431 496 43,000  Level Washington Center
10:52AM 39.6308 -74.9933 197° South 442 509 43,000  Level Washington Center
10:53AM 39.5206 -75.0347 196° South 437 503 43,000  Level Washington Center
10:54AM 39.4081 -75.0731 195° South 431 496 43,000  Level Washington Center
10:55AM 39.2958 -75.1169 197° South 426 490 43,000  Level Washington Center
10:56AM 39.1878 -75.1844 206° Southwest 426 490 43,000  Level Washington Center
10:57AM 39.0775 -75.2467 204° Southwest 431 496 43,000  Level Washington Center
10:58AM 38.9714 -75.3114 205° Southwest 436 502 43,000  Level Washington Center
10:59AM 38.8631 -75.3756 205° Southwest 436 502 43,000  Level Washington Center
11:00AM 38.7547 -75.4400 205° Southwest 436 502 43,000  Level Washington Center
11:01AM 38.6486 -75.5039 205° Southwest 431 496 43,000  Level Washington Center
11:02AM 38.5422 -75.5678 205° Southwest 431 496 43,000  Level Washington Center
11:03AM 38.4317 -75.6208 201° Southwest 426 490 43,000  Level Washington Center
11:04AM 38.3211 -75.6711 200° South 426 490 43,000  Level Washington Center
11:05AM 38.2211 -75.7158 199° South 421 484 43,000  Level Washington Center
11:06AM 38.1064 -75.7686 200° South 427 491 43,000  Level Washington Center
11:07AM 37.9831 -75.8261 200° South 432 497 43,000  Level Washington Center
11:08AM 37.8683 -75.8786 200° South 432 497 43,000  Level Washington Center
11:09AM 37.7744 -75.9281 203° Southwest 423 487 43,000  Level Washington Center
11:10AM 37.6594 -75.9828 201° Southwest 423 487 43,000  Level Washington Center
11:11AM 37.5467 -76.0344 200° South 434 499 43,000  Level Washington Center
11:12AM 37.4317 -76.0861 200° South 434 499 43,000  Level Washington Center
11:13AM 37.3189 -76.1350 199° South 434 499 43,000  Level Washington Center
11:14AM 37.1872 -76.1864 197° South 445 512 43,000  Level Washington Center
11:15AM 37.0703 -76.2375 199° South 445 512 43,000  Level Washington Center
11:16AM 36.9572 -76.2911 201° Southwest 445 512 43,000  Level Washington Center
11:17AM 36.8400 -76.3419 199° South 450 518 43,000  Level Washington Center
11:18AM 36.7272 -76.3953 201° Southwest 450 518 43,000  Level Washington Center
11:19AM 36.6244 -76.4486 203° Southwest 450 518 43,000  Level Washington Center
11:20AM 36.5072 -76.4989 199° South 450 518 43,000  Level Washington Center
11:21AM 36.3942 -76.5467 199° South 450 518 43,000  Level Washington Center
11:22AM 36.2644 -76.6019 199° South 450 518 43,000  Level Washington Center
11:23AM 36.1492 -76.6517 199° South 450 518 43,000  Level Washington Center
11:24AM 36.0342 -76.7017 199° South 450 518 43,000  Level Washington Center
11:25AM 35.9167 -76.7539 200° South 450 518 43,000  Level Washington Center
11:26AM 35.8014 -76.8033 199° South 450 518 43,000  Level Washington Center
11:27AM 35.6883 -76.8503 199° South 450 518 43,000  Level Washington Center
11:28AM 35.5897 -76.8972 201° Southwest 444 511 43,000  Level Washington Center
11:29AM 35.4744 -76.9464 199° South 439 505 43,000  Level Washington Center
11:30AM 35.3592 -76.9953 199° South 433 498 43,000  Level Washington Center
11:31AM 35.2439 -77.0417 198° South 433 498 43,000  Level Washington Center
11:32AM 35.1264 -77.0928 200° South 443 510 43,000  Level Washington Center
11:33AM 35.0153 -77.1417 200° South 443 510 43,000  Level Washington Center
11:34AM 34.8956 -77.1925 199° South 443 510 43,000  Level Washington Center
11:35AM 34.7842 -77.2458 201° Southwest 443 510 43,000  Level Washington Center
11:36AM 34.6689 -77.2917 198° South 443 510 43,000  Level Washington Center
11:37AM 34.5556 -77.3397 199° South 437 503 43,000  Level Washington Center
11:38AM 34.4442 -77.3850 199° South 437 503 43,000  Level Washington Center
11:39AM 34.3331 -77.4306 199° South 431 496 43,000  Level Washington Center
11:40AM 34.2175 -77.4806 200° South 431 496 43,000  Level Washington Center
11:41AM 34.1081 -77.5206 197° South 434 499 43,000  Level Jacksonville Center
11:42AM 34.0056 -77.5644 200° South 419 482 43,000  Level Jacksonville Center
11:43AM 33.8908 -77.6164 201° Southwest 424 488 43,000  Level Jacksonville Center
11:44AM 33.7800 -77.6581 197° South 424 488 43,000  Level Jacksonville Center
11:45AM 33.6653 -77.7075 200° South 429 494 43,000  Level Jacksonville Center
11:46AM 33.5503 -77.7539 199° South 435 501 43,000  Level Jacksonville Center
11:47AM 33.4414 -77.8000 199° South 435 501 43,000  Level Jacksonville Center
11:48AM 33.3286 -77.8464 199° South 435 501 43,000  Level Jacksonville Center
11:49AM 33.2156 -77.8900 198° South 435 501 43,000  Level Jacksonville Center
11:50AM 33.1067 -77.9358 199° South 429 494 43,000  Level Jacksonville Center
11:51AM 32.9958 -77.9789 198° South 424 488 43,000  Level Jacksonville Center
11:52AM 32.8869 -78.0244 199° South 417 480 43,000  Level Jacksonville Center
11:53AM 32.7800 -78.0675 199° South 417 480 43,000  Level Jacksonville Center
11:54AM 32.6692 -78.1153 200° South 417 480 43,000  Level Jacksonville Center
11:55AM 32.5600 -78.1556 197° South 417 480 43,000  Level Jacksonville Center
11:56AM 32.4508 -78.1956 197° South 417 480 43,000  Level Jacksonville Center
11:57AM 32.3647 -78.2319 200° South 417 480 43,000  Level Jacksonville Center
11:58AM 32.2433 -78.2850 200° South 417 480 43,000  Level Jacksonville Center
11:59AM 32.1364 -78.3269 198° South 417 480 43,000  Level Jacksonville Center
12:00PM 32.0272 -78.3692 198° South 418 481 43,000  Level Jacksonville Center
12:01PM 31.9164 -78.4164 200° South 423 487 43,000  Level Jacksonville Center
12:02PM 31.8092 -78.4558 197° South 418 481 43,000  Level Jacksonville Center
12:03PM 31.6878 -78.5056 199° South 423 487 43,000  Level Jacksonville Center
12:04PM 31.5786 -78.5472 198° South 417 480 43,000  Level Jacksonville Center
12:05PM 31.4714 -78.5886 198° South 417 480 43,000  Level Jacksonville Center
12:06PM 31.3581 -78.6353 199° South 417 480 43,000  Level Jacksonville Center
12:07PM 31.2508 -78.6767 198° South 417 480 43,000  Level Jacksonville Center
12:08PM 31.1417 -78.7203 199° South 417 480 43,000  Level Jacksonville Center
12:09PM 31.0325 -78.7592 197° South 417 480 43,000  Level Jacksonville Center
12:10PM 30.9253 -78.8025 199° South 417 480 43,000  Level Jacksonville Center
12:11PM 30.8158 -78.8411 197° South 417 480 43,000  Level Jacksonville Center
12:12PM 30.7044 -78.8844 198° South 417 480 43,000  Level Jacksonville Center
12:13PM 30.5947 -78.9297 200° South 418 481 43,000  Level Miami Center
12:14PM 30.4772 -78.9708 197° South 425 489 43,000  Level Miami Center
12:15PM 30.3744 -79.0217 203° Southwest 425 489 43,000  Level Miami Center
12:16PM 30.2631 -79.0794 204° Southwest 425 489 43,000  Level Miami Center
12:17PM 30.1600 -79.1325 204° Southwest 425 489 43,000  Level Miami Center
12:18PM 30.0508 -79.1875 204° Southwest 425 489 43,000  Level Miami Center
12:19PM 29.9497 -79.2500 208° Southwest 420 483 43,000  Level Miami Center
12:20PM 29.8425 -79.3028 203° Southwest 420 483 43,000  Level Miami Center
12:21PM 29.7392 -79.3600 206° Southwest 420 483 43,000  Level Miami Center
12:22PM 29.6319 -79.4125 203° Southwest 420 483 43,000  Level Miami Center
12:23PM 29.5206 -79.4647 202° Southwest 425 489 43,000  Level Miami Center
12:24PM 29.4131 -79.5169 203° Southwest 425 489 43,000  Level Miami Center
12:25PM 29.3078 -79.5692 203° Southwest 419 482 43,000  Level Miami Center
12:26PM 29.2025 -79.6214 203° Southwest 419 482 43,000  Level Miami Center
12:27PM 29.0953 -79.6731 203° Southwest 419 482 43,000  Level Miami Center
12:28PM 28.9878 -79.7250 203° Southwest 419 482 43,000  Level Miami Center
12:29PM 28.8803 -79.7792 204° Southwest 419 482 43,000  Level Miami Center
12:30PM 28.7728 -79.8308 203° Southwest 419 482 43,000  Level Miami Center
12:31PM 28.6675 -79.8822 203° Southwest 419 482 43,000  Level Miami Center
12:32PM 28.5619 -79.9314 202° Southwest 419 482 43,000  Level Miami Center
12:33PM 28.4672 -79.9786 204° Southwest 419 482 43,000  Level Miami Center
12:34PM 28.3617 -80.0275 202° Southwest 419 482 43,000  Level Miami Center
12:35PM 28.2436 -80.0878 204° Southwest 419 482 43,000  Level Miami Center
12:36PM 28.1381 -80.1389 203° Southwest 419 482 43,000  Level Miami Center
12:37PM 28.0303 -80.1900 203° Southwest 419 482 43,000  Level Miami Center
12:38PM 27.9353 -80.2364 203° Southwest 419 482 43,000  Level Miami Center
12:39PM 27.8256 -80.2847 201° Southwest 419 482 43,000  Level Miami Center
12:40PM 27.7222 -80.3358 204° Southwest 419 482 43,000  Level Miami Center
12:41PM 27.6164 -80.3864 203° Southwest 419 482 43,000  Level Miami Center
12:42PM 27.5150 -80.4347 203° Southwest 419 482 43,000  Level Miami Center
12:43PM 27.4136 -80.4831 203° Southwest 407 468 43,000  Level Miami Center
12:44PM 27.3122 -80.5336 204° Southwest 402 463 43,000 -660 Level Miami Center
12:45PM 27.2108 -80.5794 202° Southwest 402 463 41,700 -1,440 Descending Miami Center
12:46PM 27.1136 -80.6300 205° Southwest 402 463 40,200 -1,380 Descending Miami Center
12:47PM 27.0119 -80.6781 203° Southwest 397 457 39,000 -600 Descending Miami Center
12:48PM 26.9106 -80.7236 202° Southwest 397 457 39,000 -840 Level Miami Center
12:49PM 26.8092 -80.7714 203° Southwest 397 457 37,400 -1,920 Descending Miami Center
12:50PM 26.7033 -80.8214 203° Southwest 392 451 35,200 -2,100 Descending Miami Center
12:51PM 26.6039 -80.8667 202° Southwest 387 445 33,200 -1,980 Descending Miami Center
12:52PM 26.5022 -80.9167 204° Southwest 393 452 31,300 -1,920 Descending Miami Center
12:53PM 26.4031 -80.9550 199° South 415 478 29,400 -2,100 Descending Miami Center
12:54PM 26.2850 -80.9950 197° South 408 470 27,200 -2,100 Descending Miami Center
12:55PM 26.1817 -81.0353 199° South 402 463 25,200 -1,320 Descending Miami Center
12:56PM 26.0844 -81.0667 196° South 397 457 24,600 -1,080 Descending Miami Center
12:57PM 25.9853 -81.1094 201° Southwest 385 443 23,100 -1,500 Descending Miami Center
12:58PM 25.8897 -81.1592 205° Southwest 385 443 21,600 -1,080 Descending Miami Center
12:59PM 25.7967 -81.2042 204° Southwest 379 436 21,000 -300 Descending Miami Center
01:00PM 25.7011 -81.2514 204° Southwest 374 430 21,000  Level Miami Center
01:01PM 25.6097 -81.3011 206° Southwest 374 430 21,000 -540 Level Miami Center
01:02PM 25.5144 -81.3458 203° Southwest 369 425 20,000 -1,260 Descending Miami Center
01:03PM 25.4256 -81.3886 203° Southwest 361 415 18,500 -1,020 Descending Miami Center
01:04PM 25.3492 -81.4272 205° Southwest 349 402 18,000 -1,080 Descending Miami Center
01:05PM 25.2686 -81.4678 204° Southwest 335 386 16,400 -1,200 Descending Miami Center
01:06PM 25.1817 -81.5081 203° Southwest 330 380 15,700 -1,320 Descending Miami Center
01:07PM 25.0967 -81.5508 205° Southwest 330 380 13,800 -1,920 Descending Miami Center
01:08PM 25.0203 -81.5936 207° Southwest 324 373 11,900 -1,800 Descending Miami Center
01:09PM 24.9578 -81.6531 221° Southwest 314 361 10,300 -1,620 Descending Miami Center
01:10PM 24.9017 -81.7081 222° Southwest 289 333 8,700 -1,740 Descending Miami Center
01:11PM 24.8456 -81.7631 222° Southwest 284 327 6,900 -1,800 Descending Miami Center
01:12PM 24.7936 -81.8136 221° Southwest 267 307 5,100 -1,860 Descending Miami Center
01:13PM 24.7219 -81.8358 196° South 256 295 3,200 -1,680 Descending Miami Center
01:14PM 24.6589 -81.8494 191° South 240 276 1,800 -900 Descending Miami Center
01:15PM 24.6092 -81.8358 166° South 210 242 1,500 -300 Descending Miami Center
01:17PM 24.5561 -81.7596 156° South  Level Estimated
01:24PM 24.5561 -81.7596 156° South  Level Estimated
01:25PM 24.5561 -81.7596 156° South  Level Estimated
01:26PM 24.5561 -81.7596 156° South  Level Estimated